createdAt,value
2019-02-28T00:01:04.022Z,-16.60
2019-02-28T00:03:36.230Z,-16.50
2019-02-28T00:06:27.163Z,-16.40
2019-02-28T00:08:59.692Z,-16.40
2019-02-28T00:11:32.165Z,-16.50
2019-02-28T00:14:04.268Z,-16.40
2019-02-28T00:16:36.588Z,-16.10
2019-02-28T00:19:10.998Z,-16.10
2019-02-28T00:21:43.420Z,-16.00
2019-02-28T00:24:15.760Z,-15.90
2019-02-28T00:26:48.379Z,-15.80
2019-02-28T00:29:20.803Z,-15.60
2019-02-28T00:31:53.311Z,-15.50
2019-02-28T00:34:25.612Z,-15.50
2019-02-28T00:36:57.900Z,-15.60
2019-02-28T00:39:34.429Z,-15.60
2019-02-28T00:42:04.351Z,-15.60
2019-02-28T00:44:36.673Z,-15.70
2019-02-28T00:47:09.085Z,-15.70
2019-02-28T00:49:41.538Z,-15.80
2019-02-28T00:52:13.679Z,-15.80
2019-02-28T00:54:45.780Z,-15.90
2019-02-28T00:57:18.041Z,-16.00
2019-02-28T00:59:50.767Z,-15.90
2019-02-28T01:02:23.248Z,-15.90
2019-02-28T01:04:55.632Z,-15.70
2019-02-28T01:07:28.618Z,-15.70
2019-02-28T01:10:04.291Z,-15.70
2019-02-28T01:12:35.277Z,-15.70
2019-02-28T01:15:10.048Z,-15.70
2019-02-28T01:17:41.569Z,-15.70
2019-02-28T01:20:16.100Z,-15.70
2019-02-28T01:22:47.476Z,-15.70
2019-02-28T01:25:20.091Z,-15.70
2019-02-28T01:27:53.038Z,-15.70
2019-02-28T01:30:25.273Z,-15.80
2019-02-28T01:32:58.019Z,-15.70
2019-02-28T01:35:30.530Z,-15.80
2019-02-28T01:38:03.181Z,-15.90
2019-02-28T01:40:37.756Z,-15.90
2019-02-28T01:43:09.562Z,-16.00
2019-02-28T01:45:44.242Z,-16.10
2019-02-28T01:48:15.821Z,-16.30
2019-02-28T01:50:48.073Z,-16.30
2019-02-28T01:53:20.589Z,-16.30
2019-02-28T01:55:52.930Z,-16.40
2019-02-28T01:58:26.030Z,-16.40
2019-02-28T02:00:58.595Z,-16.40
2019-02-28T02:03:31.031Z,-16.40
2019-02-28T02:06:03.784Z,-16.30
2019-02-28T02:08:39.625Z,-16.30
2019-02-28T02:11:11.766Z,-16.30
2019-02-28T02:13:43.958Z,-16.30
2019-02-28T02:16:16.186Z,-16.20
2019-02-28T02:18:48.665Z,-16.10
2019-02-28T02:21:21.409Z,-16.10
2019-02-28T02:23:53.840Z,-16.10
2019-02-28T02:26:26.449Z,-16.10
2019-02-28T02:29:01.173Z,-16.10
2019-02-28T02:31:32.677Z,-16.00
2019-02-28T02:34:04.988Z,-16.00
2019-02-28T02:36:37.092Z,-16.00
2019-02-28T02:39:16.355Z,-15.90
2019-02-28T02:41:44.735Z,-15.90
2019-02-28T02:44:17.222Z,-15.80
2019-02-28T02:46:55.466Z,-15.80
2019-02-28T02:49:23.545Z,-15.70
2019-02-28T02:51:55.864Z,-15.70
2019-02-28T02:54:28.729Z,-15.60
2019-02-28T02:57:01.378Z,-15.60
2019-02-28T02:59:39.085Z,-15.60
2019-02-28T03:02:07.432Z,-15.50
2019-02-28T03:04:39.986Z,-15.50
2019-02-28T03:07:12.102Z,-15.50
2019-02-28T03:09:44.804Z,-15.40
2019-02-28T03:12:17.437Z,-15.40
2019-02-28T03:14:50.236Z,-15.30
2019-02-28T03:17:22.407Z,-15.30
2019-02-28T03:19:56.410Z,-15.30
2019-02-28T03:22:30.241Z,-15.30
2019-02-28T03:25:02.543Z,-15.20
2019-02-28T03:27:35.430Z,-15.20
2019-02-28T03:30:08.282Z,-15.20
2019-02-28T03:32:42.721Z,-15.20
2019-02-28T03:35:14.496Z,-15.10
2019-02-28T03:37:46.743Z,-15.10
2019-02-28T03:40:19.223Z,-15.00
2019-02-28T03:42:51.371Z,-15.00
2019-02-28T03:45:23.698Z,-15.00
2019-02-28T03:47:58.712Z,-14.90
2019-02-28T03:50:29.893Z,-14.90
2019-02-28T03:53:02.079Z,-14.90
2019-02-28T03:55:40.321Z,-14.90
2019-02-28T03:58:09.350Z,-14.90
2019-02-28T04:00:41.585Z,-14.90
2019-02-28T04:03:13.694Z,-14.90
2019-02-28T04:05:46.485Z,-14.90
2019-02-28T04:08:18.722Z,-14.90
2019-02-28T04:11:31.289Z,-14.90
2019-02-28T04:14:01.869Z,-14.80
2019-02-28T04:16:34.105Z,-14.80
2019-02-28T04:19:06.639Z,-14.80
2019-02-28T04:21:52.132Z,-14.80
2019-02-28T04:24:36.043Z,-14.80
2019-02-28T04:27:40.106Z,-14.80
2019-02-28T04:30:20.760Z,-14.80
2019-02-28T04:32:53.174Z,-14.80
2019-02-28T04:35:25.496Z,-14.80
2019-02-28T04:37:58.152Z,-14.70
2019-02-28T04:40:30.749Z,-14.70
2019-02-28T04:43:03.069Z,-14.70
2019-02-28T04:45:35.438Z,-14.80
2019-02-28T04:48:07.888Z,-14.70
2019-02-28T04:50:40.334Z,-14.70
2019-02-28T04:53:12.486Z,-14.70
2019-02-28T04:55:44.765Z,-14.80
2019-02-28T04:58:17.086Z,-14.80
2019-02-28T05:00:49.958Z,-14.80
2019-02-28T05:03:22.346Z,-14.70
2019-02-28T05:05:54.537Z,-14.80
2019-02-28T05:08:26.787Z,-14.80
2019-02-28T05:10:58.987Z,-14.80
2019-02-28T05:13:31.626Z,-14.80
2019-02-28T05:16:04.027Z,-14.80
2019-02-28T05:18:36.383Z,-14.80
2019-02-28T05:21:08.669Z,-14.80
2019-02-28T05:23:40.782Z,-14.80
2019-02-28T05:26:13.167Z,-14.80
2019-02-28T05:28:45.965Z,-14.80
2019-02-28T05:31:18.413Z,-14.80
2019-02-28T05:33:51.058Z,-14.80
2019-02-28T05:36:23.610Z,-14.80
2019-02-28T05:38:56.677Z,-14.80
2019-02-28T05:41:29.933Z,-14.80
2019-02-28T05:44:03.242Z,-14.90
2019-02-28T05:46:35.929Z,-14.90
2019-02-28T05:49:08.987Z,-14.90
2019-02-28T05:51:42.255Z,-15.00
2019-02-28T05:54:16.883Z,-15.00
2019-02-28T05:56:48.386Z,-15.00
2019-02-28T05:59:26.212Z,-15.00
2019-02-28T06:01:54.980Z,-15.00
2019-02-28T06:04:27.161Z,-15.00
2019-02-28T06:06:59.607Z,-15.00
2019-02-28T06:09:32.167Z,-15.10
2019-02-28T06:12:06.609Z,-15.10
2019-02-28T06:14:39.786Z,-15.10
2019-02-28T06:17:12.274Z,-15.10
2019-02-28T06:19:44.511Z,-15.10
2019-02-28T06:22:16.667Z,-15.20
2019-02-28T06:24:48.813Z,-15.20
2019-02-28T06:27:21.120Z,-15.20
2019-02-28T06:29:53.609Z,-15.20
2019-02-28T06:32:27.346Z,-15.30
2019-02-28T06:35:00.280Z,-15.30
2019-02-28T06:37:32.316Z,-15.40
2019-02-28T06:40:04.659Z,-15.40
2019-02-28T06:42:36.875Z,-15.40
2019-02-28T06:45:11.076Z,-15.40
2019-02-28T06:47:48.022Z,-15.40
2019-02-28T06:50:17.339Z,-15.40
2019-02-28T06:52:50.298Z,-15.50
2019-02-28T06:55:25.333Z,-15.50
2019-02-28T06:57:58.830Z,-15.50
2019-02-28T07:00:31.325Z,-15.50
2019-02-28T07:03:04.355Z,-15.60
2019-02-28T07:05:36.890Z,-15.60
2019-02-28T07:08:09.314Z,-15.70
2019-02-28T07:10:44.904Z,-15.70
2019-02-28T07:13:15.938Z,-15.80
2019-02-28T07:15:52.232Z,-15.90
2019-02-28T07:18:24.553Z,-15.90
2019-02-28T07:20:56.628Z,-15.90
2019-02-28T07:23:29.976Z,-16.00
2019-02-28T07:26:02.741Z,-16.00
2019-02-28T07:28:37.418Z,-16.10
2019-02-28T07:31:09.064Z,-16.20
2019-02-28T07:33:44.282Z,-16.20
2019-02-28T07:36:15.817Z,-16.20
2019-02-28T07:38:47.977Z,-16.30
2019-02-28T07:41:26.343Z,-16.40
2019-02-28T07:43:56.162Z,-16.50
2019-02-28T07:46:28.433Z,-16.70
2019-02-28T07:49:01.660Z,-16.80
2019-02-28T07:51:34.158Z,-16.90
2019-02-28T07:54:06.248Z,-17.00
2019-02-28T07:56:42.647Z,-17.00
2019-02-28T07:59:12.225Z,-17.10
2019-02-28T08:01:44.554Z,-17.20
2019-02-28T08:04:18.518Z,-17.20
2019-02-28T08:06:50.813Z,-17.30
2019-02-28T08:09:30.659Z,-17.40
2019-02-28T08:12:03.035Z,-17.40
2019-02-28T08:14:36.000Z,-17.40
2019-02-28T08:17:09.038Z,-17.50
2019-02-28T08:19:42.146Z,-17.50
2019-02-28T08:22:14.917Z,-17.60
2019-02-28T08:24:47.361Z,-17.70
2019-02-28T08:27:19.814Z,-17.70
2019-02-28T08:29:51.981Z,-17.80
2019-02-28T08:32:24.056Z,-18.00
2019-02-28T08:34:59.543Z,-18.00
2019-02-28T08:37:29.914Z,-18.00
2019-02-28T08:40:02.033Z,-18.00
2019-02-28T08:42:38.620Z,-18.00
2019-02-28T08:45:10.695Z,-18.00
2019-02-28T08:47:42.367Z,-18.00
2019-02-28T08:50:20.665Z,-18.00
2019-02-28T08:52:52.732Z,-18.00
2019-02-28T08:55:28.864Z,-18.00
2019-02-28T08:58:04.986Z,-18.10
2019-02-28T09:00:33.376Z,-18.10
2019-02-28T09:03:06.497Z,-18.20
2019-02-28T09:05:38.621Z,-18.20
2019-02-28T09:08:11.243Z,-18.20
2019-02-28T09:10:47.012Z,-18.20
2019-02-28T09:13:17.513Z,-18.20
2019-02-28T09:15:50.702Z,-18.20
2019-02-28T09:18:23.398Z,-18.30
2019-02-28T09:20:55.731Z,-18.50
2019-02-28T09:23:28.102Z,-18.70
2019-02-28T09:26:00.380Z,-18.80
2019-02-28T09:28:32.696Z,-19.00
2019-02-28T09:31:05.982Z,-19.10
2019-02-28T09:33:38.477Z,-19.20
2019-02-28T09:36:10.591Z,-19.20
2019-02-28T09:38:45.235Z,-19.10
2019-02-28T09:41:16.413Z,-19.30
2019-02-28T09:43:48.872Z,-19.40
2019-02-28T09:46:21.209Z,-19.50
2019-02-28T09:48:54.006Z,-19.50
2019-02-28T09:51:31.520Z,-19.50
2019-02-28T09:54:00.725Z,-19.50
2019-02-28T09:56:32.817Z,-19.60
2019-02-28T09:59:05.312Z,-19.60
2019-02-28T10:01:37.350Z,-19.60
2019-02-28T10:04:10.387Z,-19.70
2019-02-28T10:06:42.901Z,-19.70
2019-02-28T10:09:17.638Z,-19.70
2019-02-28T10:11:49.691Z,-19.70
2019-02-28T10:14:22.095Z,-19.80
2019-02-28T10:16:54.415Z,-19.80
2019-02-28T10:19:26.735Z,-19.90
2019-02-28T10:21:58.783Z,-19.90
2019-02-28T10:24:31.434Z,-19.90
2019-02-28T10:27:04.759Z,-19.90
2019-02-28T10:29:38.465Z,-19.90
2019-02-28T10:32:10.724Z,-19.90
2019-02-28T10:34:42.877Z,-20.00
2019-02-28T10:37:15.183Z,-20.00
2019-02-28T10:39:47.444Z,-20.00
2019-02-28T10:42:19.935Z,-20.10
2019-02-28T10:44:52.559Z,-20.00
2019-02-28T10:47:28.133Z,-20.00
2019-02-28T10:49:58.895Z,-20.10
2019-02-28T10:52:30.969Z,-20.10
2019-02-28T10:55:03.173Z,-20.10
2019-02-28T10:57:37.184Z,-20.10
2019-02-28T11:00:13.524Z,-20.30
2019-02-28T11:02:46.856Z,-20.40
2019-02-28T11:05:27.521Z,-20.50
2019-02-28T11:08:00.401Z,-20.50
2019-02-28T11:10:42.427Z,-20.40
2019-02-28T11:13:16.353Z,-20.30
2019-02-28T11:15:49.411Z,-20.30
2019-02-28T11:18:22.174Z,-20.30
2019-02-28T11:20:58.039Z,-20.40
2019-02-28T11:23:28.512Z,-20.60
2019-02-28T11:26:02.504Z,-20.80
2019-02-28T11:28:34.947Z,-20.70
2019-02-28T11:31:07.359Z,-20.60
2019-02-28T11:33:40.331Z,-20.60
2019-02-28T11:36:13.159Z,-20.60
2019-02-28T11:38:45.881Z,-20.60
2019-02-28T11:41:18.751Z,-20.40
2019-02-28T11:43:52.063Z,-20.30
2019-02-28T11:46:24.359Z,-20.40
2019-02-28T11:48:56.724Z,-20.50
2019-02-28T11:51:30.312Z,-20.70
2019-02-28T11:54:02.727Z,-20.90
2019-02-28T11:56:35.013Z,-21.00
2019-02-28T11:59:07.214Z,-21.00
2019-02-28T12:01:42.409Z,-21.10
2019-02-28T12:04:13.356Z,-21.20
2019-02-28T12:06:45.596Z,-21.40
2019-02-28T12:09:19.248Z,-21.20
2019-02-28T12:11:51.605Z,-21.20
2019-02-28T12:14:26.442Z,-21.10
2019-02-28T12:16:57.699Z,-21.20
2019-02-28T12:19:29.913Z,-21.40
2019-02-28T12:22:02.193Z,-21.40
2019-02-28T12:24:34.211Z,-21.40
2019-02-28T12:27:06.535Z,-21.30
2019-02-28T12:29:38.975Z,-21.30
2019-02-28T12:34:47.180Z,-21.30
2019-02-28T12:37:22.099Z,-21.30
2019-02-28T12:39:53.130Z,-21.20
2019-02-28T12:42:25.448Z,-21.10
2019-02-28T12:44:57.941Z,-21.00
2019-02-28T12:47:34.734Z,-20.80
2019-02-28T12:50:07.314Z,-20.60
2019-02-28T12:52:39.486Z,-20.40
2019-02-28T12:55:14.915Z,-20.20
2019-02-28T12:57:47.252Z,-20.00
2019-02-28T13:00:23.513Z,-19.70
2019-02-28T13:02:55.694Z,-19.50
2019-02-28T13:05:28.016Z,-19.30
2019-02-28T13:08:00.354Z,-19.00
2019-02-28T13:10:32.820Z,-18.80
2019-02-28T13:13:06.686Z,-18.60
2019-02-28T13:15:39.294Z,-18.40
2019-02-28T13:18:11.670Z,-18.30
2019-02-28T13:20:44.268Z,-18.10
2019-02-28T13:23:17.152Z,-18.00
2019-02-28T13:25:49.828Z,-17.90
2019-02-28T13:28:23.626Z,-17.70
2019-02-28T13:30:56.182Z,-17.50
2019-02-28T13:33:28.366Z,-17.40
2019-02-28T13:36:01.197Z,-17.20
2019-02-28T13:38:33.827Z,-17.10
2019-02-28T13:41:17.940Z,-17.00
2019-02-28T13:43:48.415Z,-16.90
2019-02-28T13:46:20.843Z,-16.70
2019-02-28T13:48:53.177Z,-16.50
2019-02-28T13:51:25.696Z,-16.40
2019-02-28T13:54:22.471Z,-16.20
2019-02-28T13:56:55.379Z,-16.00
2019-02-28T13:59:28.504Z,-15.80
2019-02-28T14:02:01.478Z,-15.60
2019-02-28T14:04:35.523Z,-15.40
2019-02-28T14:07:07.966Z,-15.30
2019-02-28T14:09:40.629Z,-15.10
2019-02-28T14:12:12.938Z,-14.80
2019-02-28T14:14:45.544Z,-14.60
2019-02-28T14:17:17.802Z,-14.30
2019-02-28T14:19:52.709Z,-14.10
2019-02-28T14:22:24.751Z,-13.90
2019-02-28T14:24:57.280Z,-13.80
2019-02-28T14:27:29.328Z,-13.70
2019-02-28T14:30:01.360Z,-13.40
2019-02-28T14:32:34.306Z,-13.20
2019-02-28T14:35:07.075Z,-13.00
2019-02-28T14:37:39.406Z,-12.90
2019-02-28T14:40:14.568Z,-13.00
2019-02-28T14:42:47.985Z,-12.90
2019-02-28T14:45:21.325Z,-12.90
2019-02-28T14:47:57.298Z,-12.70
2019-02-28T14:50:27.927Z,-12.50
2019-02-28T14:53:01.502Z,-12.20
2019-02-28T14:55:34.067Z,-11.90
2019-02-28T14:58:06.297Z,-11.60
2019-02-28T15:00:41.847Z,-11.60
2019-02-28T15:03:14.815Z,-11.30
2019-02-28T15:05:46.947Z,-11.20
2019-02-28T15:08:19.532Z,-11.00
2019-02-28T15:10:53.197Z,-10.80
2019-02-28T15:13:25.895Z,-10.40
2019-02-28T15:15:57.907Z,-10.40
2019-02-28T15:18:30.291Z,-10.50
2019-02-28T15:21:04.493Z,-10.30
2019-02-28T15:23:36.149Z,-10.20
2019-02-28T15:26:08.283Z,-10.10
2019-02-28T15:28:40.891Z,-9.90
2019-02-28T15:31:13.719Z,-9.70
2019-02-28T15:33:45.972Z,-9.70
2019-02-28T15:36:20.911Z,-9.60
2019-02-28T15:38:52.196Z,-9.70
2019-02-28T15:41:24.927Z,-9.60
2019-02-28T15:43:57.309Z,-9.50
2019-02-28T15:46:30.034Z,-9.20
2019-02-28T15:49:02.164Z,-9.00
2019-02-28T15:51:36.841Z,-8.90
2019-02-28T15:54:12.157Z,-9.00
2019-02-28T15:56:44.504Z,-9.20
2019-02-28T15:59:16.865Z,-9.30
2019-02-28T16:01:49.205Z,-9.10
2019-02-28T16:04:23.492Z,-8.90
2019-02-28T16:06:57.908Z,-8.80
2019-02-28T16:09:29.320Z,-8.50
2019-02-28T16:12:01.699Z,-8.30
2019-02-28T16:14:34.815Z,-8.30
2019-02-28T16:17:07.765Z,-8.30
2019-02-28T16:19:40.367Z,-8.20
2019-02-28T16:22:14.652Z,-8.10
2019-02-28T16:24:46.489Z,-7.90
2019-02-28T16:27:19.118Z,-7.60
2019-02-28T16:29:52.249Z,-7.50
2019-02-28T16:32:25.974Z,-7.30
2019-02-28T16:34:58.158Z,-7.20
2019-02-28T16:37:32.348Z,-7.40
2019-02-28T16:40:10.608Z,-7.20
2019-02-28T16:42:43.375Z,-6.90
2019-02-28T16:45:26.748Z,-6.70
2019-02-28T16:48:02.771Z,-6.70
2019-02-28T16:50:33.342Z,-6.80
2019-02-28T16:53:05.832Z,-6.80
2019-02-28T16:55:38.220Z,-6.50
2019-02-28T16:58:10.678Z,-6.20
2019-02-28T17:00:46.070Z,-5.70
2019-02-28T17:03:17.360Z,-5.30
2019-02-28T17:05:49.824Z,-5.10
2019-02-28T17:08:21.988Z,-5.10
2019-02-28T17:10:54.512Z,-4.70
2019-02-28T17:13:43.125Z,-4.60
2019-02-28T17:16:24.275Z,-4.80
2019-02-28T17:18:56.725Z,-4.80
2019-02-28T17:21:30.063Z,-4.80
2019-02-28T17:24:02.512Z,-4.70
2019-02-28T17:26:51.989Z,-4.20
2019-02-28T17:29:33.587Z,-3.90
2019-02-28T17:32:06.205Z,-4.20
2019-02-28T17:34:38.275Z,-4.40
2019-02-28T17:37:11.251Z,-4.20
2019-02-28T17:39:43.695Z,-4.20
2019-02-28T17:42:16.269Z,-4.10
2019-02-28T17:45:01.092Z,-4.00
2019-02-28T17:48:22.213Z,-3.90
2019-02-28T17:51:01.811Z,-3.70
2019-02-28T17:53:59.411Z,-3.20
2019-02-28T17:57:02.682Z,-3.30
2019-02-28T18:00:12.973Z,-3.40
2019-02-28T18:03:20.657Z,-2.90
2019-02-28T18:06:18.361Z,-2.90
2019-02-28T18:09:18.473Z,-2.60
2019-02-28T18:12:30.096Z,-3.20
2019-02-28T18:15:45.943Z,-2.70
2019-02-28T18:18:53.954Z,-2.70
2019-02-28T18:22:04.460Z,-2.30
2019-02-28T18:25:13.985Z,-2.60
2019-02-28T18:28:22.547Z,-2.20
2019-02-28T18:31:19.220Z,-1.90
2019-02-28T18:34:03.667Z,-1.50
2019-02-28T18:36:43.098Z,-1.60
2019-02-28T18:39:14.085Z,-1.60
2019-02-28T18:41:46.820Z,-1.90
2019-02-28T18:44:19.662Z,-2.00
2019-02-28T18:46:51.819Z,-2.10
2019-02-28T18:49:26.629Z,-2.00
2019-02-28T18:51:59.610Z,-2.10
2019-02-28T18:54:31.652Z,-2.30
2019-02-28T18:57:03.844Z,-2.60
2019-02-28T18:59:36.118Z,-2.60
2019-02-28T19:02:08.458Z,-2.60
2019-02-28T19:04:41.649Z,-2.80
2019-02-28T19:07:14.554Z,-2.80
2019-02-28T19:09:46.993Z,-3.00
2019-02-28T19:12:19.351Z,-3.10
2019-02-28T19:14:52.183Z,-2.70
2019-02-28T19:17:24.452Z,-2.80
2019-02-28T19:19:56.969Z,-2.60
2019-02-28T19:22:29.510Z,-2.90
2019-02-28T19:25:01.872Z,-3.40
2019-02-28T19:27:34.192Z,-3.40
2019-02-28T19:30:14.147Z,-3.30
2019-02-28T19:32:47.182Z,-3.30
2019-02-28T19:35:19.406Z,-3.10
2019-02-28T19:37:51.945Z,-3.30
2019-02-28T19:40:24.784Z,-3.30
2019-02-28T19:42:57.526Z,-3.10
2019-02-28T19:45:33.024Z,-3.50
2019-02-28T19:48:20.167Z,-3.20
2019-02-28T19:50:58.453Z,-3.50
2019-02-28T19:53:30.848Z,-3.50
2019-02-28T19:56:04.189Z,-3.30
2019-02-28T19:58:54.215Z,-3.20
2019-02-28T20:01:30.842Z,-3.30
2019-02-28T20:04:03.065Z,-3.60
2019-02-28T20:06:35.414Z,-4.20
2019-02-28T20:09:09.213Z,-4.60
2019-02-28T20:11:41.873Z,-4.80
2019-02-28T20:14:29.929Z,-4.80
2019-02-28T20:17:13.275Z,-5.00
2019-02-28T20:19:46.978Z,-4.80
2019-02-28T20:22:19.309Z,-4.80
2019-02-28T20:24:51.651Z,-4.90
2019-02-28T20:27:24.337Z,-5.00
2019-02-28T20:29:56.881Z,-5.00
2019-02-28T20:32:29.082Z,-5.10
2019-02-28T20:35:01.161Z,-5.10
2019-02-28T20:37:33.292Z,-5.30
2019-02-28T20:40:06.082Z,-5.20
2019-02-28T20:42:41.927Z,-5.10
2019-02-28T20:45:14.365Z,-5.00
2019-02-28T20:47:46.589Z,-5.10
2019-02-28T20:50:25.875Z,-5.10
2019-02-28T20:52:57.891Z,-5.00
2019-02-28T20:55:30.448Z,-5.10
2019-02-28T20:58:02.607Z,-5.30
2019-02-28T21:00:34.717Z,-5.30
2019-02-28T21:03:07.111Z,-5.10
2019-02-28T21:05:39.350Z,-5.00
2019-02-28T21:08:11.513Z,-4.90
2019-02-28T21:10:43.808Z,-4.90
2019-02-28T21:13:16.102Z,-5.00
2019-02-28T21:15:48.542Z,-5.10
2019-02-28T21:18:20.818Z,-5.30
2019-02-28T21:20:53.075Z,-5.20
2019-02-28T21:23:25.491Z,-5.40
2019-02-28T21:25:57.827Z,-5.40
2019-02-28T21:28:30.252Z,-5.50
2019-02-28T21:31:02.484Z,-5.40
2019-02-28T21:33:34.985Z,-5.50
2019-02-28T21:36:07.334Z,-5.50
2019-02-28T21:38:39.703Z,-5.40
2019-02-28T21:41:12.330Z,-5.60
2019-02-28T21:43:44.687Z,-5.50
2019-02-28T21:46:16.921Z,-5.60
2019-02-28T21:48:49.119Z,-5.70
2019-02-28T21:51:21.493Z,-5.80
2019-02-28T21:53:53.792Z,-5.90
2019-02-28T21:56:25.979Z,-6.00
2019-02-28T21:58:58.641Z,-6.10
2019-02-28T22:01:31.292Z,-6.30
2019-02-28T22:04:03.776Z,-6.60
2019-02-28T22:06:36.048Z,-6.80
2019-02-28T22:09:09.699Z,-7.10
2019-02-28T22:11:42.492Z,-7.50
2019-02-28T22:14:15.008Z,-7.90
2019-02-28T22:16:47.516Z,-8.20
2019-02-28T22:19:19.900Z,-8.60
2019-02-28T22:21:52.521Z,-8.80
2019-02-28T22:24:24.626Z,-9.10
2019-02-28T22:26:56.775Z,-9.30
2019-02-28T22:29:29.242Z,-9.50
2019-02-28T22:32:08.197Z,-9.60
2019-02-28T22:34:45.719Z,-9.70
2019-02-28T22:37:17.931Z,-9.90
2019-02-28T22:39:50.541Z,-10.20
2019-02-28T22:42:22.968Z,-10.50
2019-02-28T22:44:55.358Z,-10.80
2019-02-28T22:47:27.425Z,-11.20
2019-02-28T22:49:59.567Z,-11.50
2019-02-28T22:52:32.353Z,-11.70
2019-02-28T22:55:04.743Z,-11.80
2019-02-28T22:57:36.963Z,-12.10
2019-02-28T23:00:16.092Z,-12.40
2019-02-28T23:02:48.573Z,-12.70
2019-02-28T23:05:20.865Z,-12.90
2019-02-28T23:07:53.239Z,-13.10
2019-02-28T23:13:02.000Z,-13.30
2019-02-28T23:15:34.993Z,-13.40
2019-02-28T23:18:07.483Z,-13.60
2019-02-28T23:20:39.718Z,-13.80
2019-02-28T23:23:12.252Z,-13.80
2019-02-28T23:25:44.547Z,-13.80
2019-02-28T23:28:36.123Z,-13.80
2019-02-28T23:31:36.174Z,-13.80
2019-02-28T23:34:13.958Z,-14.00
2019-02-28T23:36:46.231Z,-14.10
2019-02-28T23:39:18.792Z,-14.20
2019-02-28T23:41:51.530Z,-14.20
2019-02-28T23:44:23.832Z,-14.20
2019-02-28T23:46:56.479Z,-14.20
2019-02-28T23:49:28.908Z,-14.40
2019-02-28T23:52:01.302Z,-14.40
2019-02-28T23:54:34.059Z,-14.40
2019-02-28T23:57:06.601Z,-14.40
2019-02-28T23:59:38.898Z,-14.50
